sensor_id;sensor_type;location;lat;lon;timestamp;pressure;altitude;pressure_sealevel;temperature;humidity
18201;BME280;9226;47.858;9.594;2023-02-28T00:00:39;95516.16;;;-2.07;72.46
18201;BME280;9226;47.858;9.594;2023-02-28T00:03:04;95522.88;;;-2.00;72.69
18201;BME280;9226;47.858;9.594;2023-02-28T00:05:30;95524.56;;;-1.98;72.66
18201;BME280;9226;47.858;9.594;2023-02-28T00:07:55;95527.50;;;-2.09;72.36
18201;BME280;9226;47.858;9.594;2023-02-28T00:10:27;95527.38;;;-2.05;72.74
18201;BME280;9226;47.858;9.594;2023-02-28T00:12:54;95522.81;;;-1.98;72.89
18201;BME280;9226;47.858;9.594;2023-02-28T00:15:22;95516.16;;;-2.07;72.99
18201;BME280;9226;47.858;9.594;2023-02-28T00:17:48;95522.25;;;-2.08;72.80
18201;BME280;9226;47.858;9.594;2023-02-28T00:20:13;95528.25;;;-2.06;72.81
18201;BME280;9226;47.858;9.594;2023-02-28T00:22:44;95528.25;;;-2.06;72.73
18201;BME280;9226;47.858;9.594;2023-02-28T00:25:11;95516.25;;;-2.10;72.84
18201;BME280;9226;47.858;9.594;2023-02-28T00:27:38;95517.56;;;-1.96;72.75
18201;BME280;9226;47.858;9.594;2023-02-28T00:30:06;95522.16;;;-2.05;72.83
18201;BME280;9226;47.858;9.594;2023-02-28T00:32:31;95517.28;;;-2.15;73.07
18201;BME280;9226;47.858;9.594;2023-02-28T00:34:57;95515.34;;;-2.09;73.05
18201;BME280;9226;47.858;9.594;2023-02-28T00:37:22;95515.78;;;-1.94;72.73
18201;BME280;9226;47.858;9.594;2023-02-28T00:39:48;95516.88;;;-2.02;72.69
18201;BME280;9226;47.858;9.594;2023-02-28T00:42:13;95513.44;;;-2.02;72.71
18201;BME280;9226;47.858;9.594;2023-02-28T00:44:39;95514.84;;;-1.92;72.72
18201;BME280;9226;47.858;9.594;2023-02-28T00:47:04;95519.38;;;-1.98;72.39
18201;BME280;9226;47.858;9.594;2023-02-28T00:49:30;95516.06;;;-2.04;72.77
18201;BME280;9226;47.858;9.594;2023-02-28T00:51:55;95514.09;;;-1.95;72.40
18201;BME280;9226;47.858;9.594;2023-02-28T00:54:21;95522.06;;;-2.02;72.66
18201;BME280;9226;47.858;9.594;2023-02-28T00:56:47;95515.97;;;-2.01;72.87
18201;BME280;9226;47.858;9.594;2023-02-28T00:59:14;95510.78;;;-2.01;72.57
18201;BME280;9226;47.858;9.594;2023-02-28T01:01:40;95504.56;;;-1.96;72.43
18201;BME280;9226;47.858;9.594;2023-02-28T01:04:05;95506.41;;;-2.00;72.46
18201;BME280;9226;47.858;9.594;2023-02-28T01:06:31;95512.41;;;-1.98;72.32
18201;BME280;9226;47.858;9.594;2023-02-28T01:08:57;95506.97;;;-1.90;72.10
18201;BME280;9226;47.858;9.594;2023-02-28T01:11:22;95508.78;;;-1.92;72.23
18201;BME280;9226;47.858;9.594;2023-02-28T01:13:48;95503.78;;;-1.98;72.28
18201;BME280;9226;47.858;9.594;2023-02-28T01:16:13;95493.38;;;-1.98;72.06
18201;BME280;9226;47.858;9.594;2023-02-28T01:18:39;95501.94;;;-1.95;72.19
18201;BME280;9226;47.858;9.594;2023-02-28T01:21:06;95491.75;;;-2.03;71.85
18201;BME280;9226;47.858;9.594;2023-02-28T01:23:32;95482.97;;;-1.98;72.14
18201;BME280;9226;47.858;9.594;2023-02-28T01:26:07;95497.16;;;-2.09;72.08
18201;BME280;9226;47.858;9.594;2023-02-28T01:28:33;95495.03;;;-1.96;71.88
18201;BME280;9226;47.858;9.594;2023-02-28T01:30:59;95490.72;;;-1.97;71.79
18201;BME280;9226;47.858;9.594;2023-02-28T01:33:24;95488.59;;;-2.12;71.80
18201;BME280;9226;47.858;9.594;2023-02-28T01:35:58;95485.06;;;-2.10;72.14
18201;BME280;9226;47.858;9.594;2023-02-28T01:38:23;95497.78;;;-2.01;71.62
18201;BME280;9226;47.858;9.594;2023-02-28T01:40:49;95493.66;;;-2.08;71.58
18201;BME280;9226;47.858;9.594;2023-02-28T01:43:29;95497.06;;;-2.06;71.60
18201;BME280;9226;47.858;9.594;2023-02-28T01:45:56;95486.47;;;-2.00;71.44
18201;BME280;9226;47.858;9.594;2023-02-28T01:48:26;95496.06;;;-2.02;71.56
18201;BME280;9226;47.858;9.594;2023-02-28T01:50:55;95496.13;;;-2.03;71.50
18201;BME280;9226;47.858;9.594;2023-02-28T01:53:28;95489.16;;;-2.03;71.43
18201;BME280;9226;47.858;9.594;2023-02-28T01:55:56;95489.88;;;-1.97;71.44
18201;BME280;9226;47.858;9.594;2023-02-28T01:58:22;95493.19;;;-1.92;71.16
18201;BME280;9226;47.858;9.594;2023-02-28T02:00:48;95492.41;;;-1.94;70.88
18201;BME280;9226;47.858;9.594;2023-02-28T02:03:16;95485.25;;;-1.88;70.87
18201;BME280;9226;47.858;9.594;2023-02-28T02:05:44;95490.50;;;-1.89;70.70
18201;BME280;9226;47.858;9.594;2023-02-28T02:08:16;95485.25;;;-1.88;70.68
18201;BME280;9226;47.858;9.594;2023-02-28T02:10:44;95484.50;;;-1.91;70.57
18201;BME280;9226;47.858;9.594;2023-02-28T02:24:22;95469.00;;;-1.94;70.27
18201;BME280;9226;47.858;9.594;2023-02-28T02:40:25;95457.97;;;-1.76;69.88
18201;BME280;9226;47.858;9.594;2023-02-28T02:42:57;95467.63;;;-1.79;69.60
18201;BME280;9226;47.858;9.594;2023-02-28T02:45:43;95459.09;;;-1.83;69.39
18201;BME280;9226;47.858;9.594;2023-02-28T02:48:13;95461.78;;;-1.86;69.09
18201;BME280;9226;47.858;9.594;2023-02-28T02:50:46;95481.25;;;-2.00;69.47
18201;BME280;9226;47.858;9.594;2023-02-28T02:53:17;95476.88;;;-1.97;69.41
18201;BME280;9226;47.858;9.594;2023-02-28T02:55:47;95467.09;;;-1.89;69.41
18201;BME280;9226;47.858;9.594;2023-02-28T02:58:22;95482.69;;;-1.89;69.63
18201;BME280;9226;47.858;9.594;2023-02-28T03:00:52;95483.88;;;-2.00;69.78
18201;BME280;9226;47.858;9.594;2023-02-28T03:03:19;95485.34;;;-1.91;69.51
18201;BME280;9226;47.858;9.594;2023-02-28T03:05:58;95473.22;;;-1.92;69.23
18201;BME280;9226;47.858;9.594;2023-02-28T03:08:24;95482.97;;;-1.98;69.12
18201;BME280;9226;47.858;9.594;2023-02-28T03:10:55;95481.06;;;-1.93;69.38
18201;BME280;9226;47.858;9.594;2023-02-28T03:19:34;95486.03;;;-1.86;68.67
18201;BME280;9226;47.858;9.594;2023-02-28T03:28:00;95484.28;;;-1.85;67.92
18201;BME280;9226;47.858;9.594;2023-02-28T03:30:49;95487.19;;;-1.94;68.29
18201;BME280;9226;47.858;9.594;2023-02-28T03:33:23;95485.47;;;-1.95;68.04
18201;BME280;9226;47.858;9.594;2023-02-28T03:36:05;95482.97;;;-1.98;68.44
18201;BME280;9226;47.858;9.594;2023-02-28T03:38:37;95490.78;;;-1.98;68.32
18201;BME280;9226;47.858;9.594;2023-02-28T03:41:20;95480.63;;;-2.06;68.73
18201;BME280;9226;47.858;9.594;2023-02-28T03:43:54;95485.56;;;-1.98;68.49
18201;BME280;9226;47.858;9.594;2023-02-28T03:46:30;95479.88;;;-2.10;68.24
18201;BME280;9226;47.858;9.594;2023-02-28T03:49:13;95477.31;;;-2.11;68.47
18201;BME280;9226;47.858;9.594;2023-02-28T03:51:41;95477.91;;;-2.03;68.48
18201;BME280;9226;47.858;9.594;2023-02-28T03:54:23;95477.09;;;-2.04;68.31
18201;BME280;9226;47.858;9.594;2023-02-28T03:56:57;95483.16;;;-2.05;68.70
18201;BME280;9226;47.858;9.594;2023-02-28T03:59:53;95483.88;;;-2.00;68.55
18201;BME280;9226;47.858;9.594;2023-02-28T04:02:20;95483.63;;;-1.92;68.10
18201;BME280;9226;47.858;9.594;2023-02-28T04:04:46;95481.16;;;-1.96;68.38
18201;BME280;9226;47.858;9.594;2023-02-28T04:07:14;95493.47;;;-2.02;68.22
18201;BME280;9226;47.858;9.594;2023-02-28T04:09:40;95492.03;;;-1.84;68.29
18201;BME280;9226;47.858;9.594;2023-02-28T04:12:06;95490.50;;;-1.89;67.87
18201;BME280;9226;47.858;9.594;2023-02-28T04:14:32;95492.81;;;-1.80;67.76
18201;BME280;9226;47.858;9.594;2023-02-28T04:16:57;95484.59;;;-1.94;67.85
18201;BME280;9226;47.858;9.594;2023-02-28T04:19:23;95492.31;;;-1.91;67.64
18201;BME280;9226;47.858;9.594;2023-02-28T04:21:51;95493.28;;;-1.95;67.52
18201;BME280;9226;47.858;9.594;2023-02-28T04:24:21;95497.88;;;-2.04;67.97
18201;BME280;9226;47.858;9.594;2023-02-28T04:26:50;95499.22;;;-2.20;68.14
18201;BME280;9226;47.858;9.594;2023-02-28T04:29:24;95488.47;;;-2.08;68.35
18201;BME280;9226;47.858;9.594;2023-02-28T04:31:50;95496.75;;;-2.25;68.94
18201;BME280;9226;47.858;9.594;2023-02-28T04:34:16;95501.47;;;-2.08;68.64
18201;BME280;9226;47.858;9.594;2023-02-28T04:36:42;95496.06;;;-2.02;68.53
18201;BME280;9226;47.858;9.594;2023-02-28T04:39:07;95497.38;;;-2.15;68.41
18201;BME280;9226;47.858;9.594;2023-02-28T04:41:34;95502.34;;;-2.09;68.49
18201;BME280;9226;47.858;9.594;2023-02-28T04:44:00;95500.00;;;-2.16;68.86
18201;BME280;9226;47.858;9.594;2023-02-28T04:46:25;95499.59;;;-2.04;68.34
18201;BME280;9226;47.858;9.594;2023-02-28T04:48:50;95493.56;;;-2.05;68.46
18201;BME280;9226;47.858;9.594;2023-02-28T04:51:17;95502.75;;;-2.21;68.66
18201;BME280;9226;47.858;9.594;2023-02-28T04:53:44;95500.09;;;-2.20;68.52
18201;BME280;9226;47.858;9.594;2023-02-28T04:56:12;95507.94;;;-2.21;68.95
18201;BME280;9226;47.858;9.594;2023-02-28T04:58:38;95517.47;;;-2.22;68.74
18201;BME280;9226;47.858;9.594;2023-02-28T05:03:43;95511.91;;;-2.09;68.66
18201;BME280;9226;47.858;9.594;2023-02-28T05:06:09;95511.06;;;-2.10;68.92
18201;BME280;9226;47.858;9.594;2023-02-28T05:08:35;95500.53;;;-2.05;68.85
18201;BME280;9226;47.858;9.594;2023-02-28T05:11:01;95502.47;;;-2.12;69.12
18201;BME280;9226;47.858;9.594;2023-02-28T05:13:27;95506.69;;;-2.09;68.84
18201;BME280;9226;47.858;9.594;2023-02-28T05:15:53;95501.56;;;-2.11;68.84
18201;BME280;9226;47.858;9.594;2023-02-28T05:18:19;95505.06;;;-2.12;68.39
18201;BME280;9226;47.858;9.594;2023-02-28T05:20:44;95509.44;;;-2.14;68.88
18201;BME280;9226;47.858;9.594;2023-02-28T05:23:13;95511.38;;;-2.21;68.70
18201;BME280;9226;47.858;9.594;2023-02-28T05:25:40;95513.63;;;-2.08;69.28
18201;BME280;9226;47.858;9.594;2023-02-28T05:28:06;95512.97;;;-2.15;69.40
18201;BME280;9226;47.858;9.594;2023-02-28T05:30:31;95518.06;;;-2.12;69.09
18201;BME280;9226;47.858;9.594;2023-02-28T05:32:58;95521.47;;;-2.10;69.12
18201;BME280;9226;47.858;9.594;2023-02-28T05:35:24;95515.50;;;-2.13;69.00
18201;BME280;9226;47.858;9.594;2023-02-28T05:37:50;95521.22;;;-2.30;69.65
18201;BME280;9226;47.858;9.594;2023-02-28T05:40:16;95521.81;;;-2.22;69.68
18201;BME280;9226;47.858;9.594;2023-02-28T05:42:42;95525.91;;;-2.13;69.57
18201;BME280;9226;47.858;9.594;2023-02-28T05:45:08;95537.31;;;-2.19;69.64
18201;BME280;9226;47.858;9.594;2023-02-28T05:47:34;95533.94;;;-2.21;69.65
18201;BME280;9226;47.858;9.594;2023-02-28T05:50:00;95542.63;;;-2.22;69.48
18201;BME280;9226;47.858;9.594;2023-02-28T05:52:26;95534.91;;;-2.25;69.82
18201;BME280;9226;47.858;9.594;2023-02-28T05:54:51;95531.56;;;-2.29;69.61
18201;BME280;9226;47.858;9.594;2023-02-28T05:57:17;95530.81;;;-2.32;69.88
18201;BME280;9226;47.858;9.594;2023-02-28T05:59:42;95529.09;;;-2.33;69.97
18201;BME280;9226;47.858;9.594;2023-02-28T06:02:14;95537.06;;;-2.40;70.37
18201;BME280;9226;47.858;9.594;2023-02-28T06:04:40;95542.13;;;-2.35;69.99
18201;BME280;9226;47.858;9.594;2023-02-28T06:07:06;95539.41;;;-2.30;70.14
18201;BME280;9226;47.858;9.594;2023-02-28T06:09:32;95542.34;;;-2.43;70.06
18201;BME280;9226;47.858;9.594;2023-02-28T06:11:59;95537.56;;;-2.27;70.06
18201;BME280;9226;47.858;9.594;2023-02-28T06:14:25;95540.72;;;-2.17;69.74
18201;BME280;9226;47.858;9.594;2023-02-28T06:16:51;95542.88;;;-2.31;70.01
18201;BME280;9226;47.858;9.594;2023-02-28T06:19:16;95553.53;;;-2.41;70.15
18201;BME280;9226;47.858;9.594;2023-02-28T06:21:42;95548.44;;;-2.44;70.65
18201;BME280;9226;47.858;9.594;2023-02-28T06:24:08;95557.06;;;-2.42;70.46
18201;BME280;9226;47.858;9.594;2023-02-28T06:26:33;95559.72;;;-2.45;70.52
18201;BME280;9226;47.858;9.594;2023-02-28T06:28:59;95571.09;;;-2.49;70.51
18201;BME280;9226;47.858;9.594;2023-02-28T06:31:26;95565.00;;;-2.48;70.86
18201;BME280;9226;47.858;9.594;2023-02-28T06:33:51;95566.75;;;-2.48;70.89
18201;BME280;9226;47.858;9.594;2023-02-28T06:36:17;95569.22;;;-2.44;70.59
18201;BME280;9226;47.858;9.594;2023-02-28T06:38:43;95563.34;;;-2.50;70.83
18201;BME280;9226;47.858;9.594;2023-02-28T06:41:09;95572.78;;;-2.46;70.69
18201;BME280;9226;47.858;9.594;2023-02-28T06:43:38;95571.47;;;-2.63;70.87
18201;BME280;9226;47.858;9.594;2023-02-28T06:46:06;95582.56;;;-2.56;71.12
18201;BME280;9226;47.858;9.594;2023-02-28T06:48:32;95581.50;;;-2.49;71.03
18201;BME280;9226;47.858;9.594;2023-02-28T06:51:09;95583.75;;;-2.37;71.25
18201;BME280;9226;47.858;9.594;2023-02-28T06:53:36;95587.91;;;-2.31;71.24
18201;BME280;9226;47.858;9.594;2023-02-28T06:56:06;95589.03;;;-2.40;71.05
18201;BME280;9226;47.858;9.594;2023-02-28T06:58:32;95591.88;;;-2.49;71.27
18201;BME280;9226;47.858;9.594;2023-02-28T07:00:57;95600.34;;;-2.42;71.07
18201;BME280;9226;47.858;9.594;2023-02-28T07:03:22;95598.97;;;-2.54;71.33
18201;BME280;9226;47.858;9.594;2023-02-28T07:05:48;95612.41;;;-2.40;71.26
18201;BME280;9226;47.858;9.594;2023-02-28T07:08:14;95615.94;;;-2.42;71.32
18201;BME280;9226;47.858;9.594;2023-02-28T07:10:40;95605.63;;;-2.45;70.85
18201;BME280;9226;47.858;9.594;2023-02-28T07:13:07;95611.91;;;-2.52;71.43
18201;BME280;9226;47.858;9.594;2023-02-28T07:15:32;95604.22;;;-2.57;71.82
18201;BME280;9226;47.858;9.594;2023-02-28T07:17:58;95620.47;;;-2.49;71.22
18201;BME280;9226;47.858;9.594;2023-02-28T07:20:24;95616.41;;;-2.59;71.63
18201;BME280;9226;47.858;9.594;2023-02-28T07:22:50;95619.41;;;-2.42;71.19
18201;BME280;9226;47.858;9.594;2023-02-28T07:25:30;95616.97;;;-2.48;71.40
18201;BME280;9226;47.858;9.594;2023-02-28T07:27:56;95613.97;;;-2.32;71.02
18201;BME280;9226;47.858;9.594;2023-02-28T07:30:21;95617.94;;;-2.21;70.63
18201;BME280;9226;47.858;9.594;2023-02-28T07:32:47;95617.50;;;-2.35;70.90
18201;BME280;9226;47.858;9.594;2023-02-28T07:35:13;95611.72;;;-2.15;70.76
18201;BME280;9226;47.858;9.594;2023-02-28T07:37:41;95620.50;;;-2.19;70.70
18201;BME280;9226;47.858;9.594;2023-02-28T07:40:09;95624.84;;;-2.20;70.56
18201;BME280;9226;47.858;9.594;2023-02-28T07:42:40;95621.00;;;-2.06;70.50
18201;BME280;9226;47.858;9.594;2023-02-28T07:45:06;95619.97;;;-2.01;70.48
18201;BME280;9226;47.858;9.594;2023-02-28T07:47:32;95623.66;;;-2.08;70.20
18201;BME280;9226;47.858;9.594;2023-02-28T07:49:57;95631.78;;;-2.20;70.72
18201;BME280;9226;47.858;9.594;2023-02-28T07:52:23;95623.91;;;-2.17;70.86
18201;BME280;9226;47.858;9.594;2023-02-28T07:54:49;95633.41;;;-2.16;70.47
18201;BME280;9226;47.858;9.594;2023-02-28T07:57:15;95627.91;;;-2.05;70.39
18201;BME280;9226;47.858;9.594;2023-02-28T07:59:41;95625.56;;;-2.14;70.55
18201;BME280;9226;47.858;9.594;2023-02-28T08:02:06;95624.53;;;-2.09;70.71
18201;BME280;9226;47.858;9.594;2023-02-28T08:04:34;95630.66;;;-2.10;70.98
18201;BME280;9226;47.858;9.594;2023-02-28T08:07:00;95632.03;;;-1.98;70.98
18201;BME280;9226;47.858;9.594;2023-02-28T08:09:25;95636.44;;;-2.00;70.39
18201;BME280;9226;47.858;9.594;2023-02-28T08:11:51;95641.66;;;-2.02;70.22
18201;BME280;9226;47.858;9.594;2023-02-28T08:14:16;95644.81;;;-1.90;69.99
18201;BME280;9226;47.858;9.594;2023-02-28T08:16:41;95644.06;;;-1.94;70.07
18201;BME280;9226;47.858;9.594;2023-02-28T08:19:08;95643.75;;;-1.83;70.15
18201;BME280;9226;47.858;9.594;2023-02-28T08:21:34;95643.69;;;-1.82;69.97
18201;BME280;9226;47.858;9.594;2023-02-28T08:24:00;95642.19;;;-1.90;70.42
18201;BME280;9226;47.858;9.594;2023-02-28T08:26:25;95647.91;;;-1.77;70.76
18201;BME280;9226;47.858;9.594;2023-02-28T08:28:51;95643.13;;;-1.91;70.01
18201;BME280;9226;47.858;9.594;2023-02-28T08:31:17;95637.97;;;-1.93;69.98
18201;BME280;9226;47.858;9.594;2023-02-28T08:33:43;95642.59;;;-1.74;70.05
18201;BME280;9226;47.858;9.594;2023-02-28T08:36:09;95644.84;;;-1.62;70.15
18201;BME280;9226;47.858;9.594;2023-02-28T08:38:36;95650.38;;;-1.73;69.24
18201;BME280;9226;47.858;9.594;2023-02-28T08:41:04;95642.47;;;-1.70;69.60
18201;BME280;9226;47.858;9.594;2023-02-28T08:43:33;95650.00;;;-1.60;69.81
18201;BME280;9226;47.858;9.594;2023-02-28T08:45:59;95642.72;;;-1.49;69.50
18201;BME280;9226;47.858;9.594;2023-02-28T08:48:28;95645.13;;;-1.43;68.91
18201;BME280;9226;47.858;9.594;2023-02-28T08:50:57;95658.28;;;-1.48;68.60
18201;BME280;9226;47.858;9.594;2023-02-28T08:53:22;95649.34;;;-1.67;69.12
18201;BME280;9226;47.858;9.594;2023-02-28T08:56:03;95657.19;;;-1.69;69.30
18201;BME280;9226;47.858;9.594;2023-02-28T08:58:30;95656.41;;;-1.71;69.67
18201;BME280;9226;47.858;9.594;2023-02-28T09:00:56;95654.41;;;-1.62;69.97
18201;BME280;9226;47.858;9.594;2023-02-28T09:03:23;95660.78;;;-1.44;69.84
18201;BME280;9226;47.858;9.594;2023-02-28T09:05:59;95671.31;;;-1.19;69.21
18201;BME280;9226;47.858;9.594;2023-02-28T09:08:26;95664.09;;;-1.11;68.83
18201;BME280;9226;47.858;9.594;2023-02-28T09:10:52;95672.72;;;-1.09;67.99
18201;BME280;9226;47.858;9.594;2023-02-28T09:13:19;95667.84;;;-1.20;67.95
18201;BME280;9226;47.858;9.594;2023-02-28T09:15:45;95681.25;;;-1.04;67.87
18201;BME280;9226;47.858;9.594;2023-02-28T09:18:11;95676.97;;;-1.06;67.61
18201;BME280;9226;47.858;9.594;2023-02-28T09:20:40;95684.81;;;-1.08;67.77
18201;BME280;9226;47.858;9.594;2023-02-28T09:23:07;95677.66;;;-1.28;67.62
18201;BME280;9226;47.858;9.594;2023-02-28T09:25:33;95673.75;;;-1.15;67.58
18201;BME280;9226;47.858;9.594;2023-02-28T09:27:59;95669.94;;;-1.31;67.96
18201;BME280;9226;47.858;9.594;2023-02-28T09:30:24;95666.84;;;-1.16;67.96
18201;BME280;9226;47.858;9.594;2023-02-28T09:32:49;95671.00;;;-1.10;68.00
18201;BME280;9226;47.858;9.594;2023-02-28T09:35:18;95667.28;;;-1.03;68.26
18201;BME280;9226;47.858;9.594;2023-02-28T09:37:44;95666.44;;;-1.03;67.69
18201;BME280;9226;47.858;9.594;2023-02-28T09:40:11;95667.28;;;-1.03;67.56
18201;BME280;9226;47.858;9.594;2023-02-28T09:42:37;95658.53;;;-0.74;67.30
18201;BME280;9226;47.858;9.594;2023-02-28T09:45:53;95662.38;;;-0.59;66.97
18201;BME280;9226;47.858;9.594;2023-02-28T09:47:56;95664.34;;;-0.65;66.40
18201;BME280;9226;47.858;9.594;2023-02-28T09:50:38;95659.28;;;-0.70;66.05
18201;BME280;9226;47.858;9.594;2023-02-28T09:53:14;95671.03;;;-0.31;65.94
18201;BME280;9226;47.858;9.594;2023-02-28T09:55:50;95684.63;;;-0.23;65.10
18201;BME280;9226;47.858;9.594;2023-02-28T09:58:45;95682.34;;;-0.58;65.95
18201;BME280;9226;47.858;9.594;2023-02-28T10:01:29;95696.53;;;-0.66;65.83
18201;BME280;9226;47.858;9.594;2023-02-28T10:04:30;95692.66;;;-0.81;66.68
18201;BME280;9226;47.858;9.594;2023-02-28T10:07:02;95697.88;;;-0.81;66.52
18201;BME280;9226;47.858;9.594;2023-02-28T10:09:33;95699.28;;;-0.71;66.67
18201;BME280;9226;47.858;9.594;2023-02-28T10:12:03;95695.66;;;-0.67;66.66
18201;BME280;9226;47.858;9.594;2023-02-28T10:14:33;95693.59;;;-0.84;66.39
18201;BME280;9226;47.858;9.594;2023-02-28T10:17:03;95692.47;;;-0.75;66.73
18201;BME280;9226;47.858;9.594;2023-02-28T10:22:35;95690.00;;;-0.80;67.07
18201;BME280;9226;47.858;9.594;2023-02-28T10:25:15;95700.22;;;-0.47;66.49
18201;BME280;9226;47.858;9.594;2023-02-28T10:27:41;95701.50;;;-0.60;66.70
18201;BME280;9226;47.858;9.594;2023-02-28T10:30:09;95703.44;;;-0.65;65.90
18201;BME280;9226;47.858;9.594;2023-02-28T10:32:40;95700.31;;;-0.77;66.35
18201;BME280;9226;47.858;9.594;2023-02-28T10:35:14;95703.13;;;-0.56;66.50
18201;BME280;9226;47.858;9.594;2023-02-28T10:37:42;95696.22;;;-0.32;66.02
18201;BME280;9226;47.858;9.594;2023-02-28T10:42:58;95700.06;;;-0.42;65.40
18201;BME280;9226;47.858;9.594;2023-02-28T10:45:25;95701.34;;;-0.29;65.10
18201;BME280;9226;47.858;9.594;2023-02-28T10:48:02;95704.66;;;-0.24;65.00
18201;BME280;9226;47.858;9.594;2023-02-28T10:56:03;95716.13;;;-0.29;65.52
18201;BME280;9226;47.858;9.594;2023-02-28T10:58:33;95712.84;;;-0.34;65.25
18201;BME280;9226;47.858;9.594;2023-02-28T11:01:14;95708.47;;;-0.34;65.57
18201;BME280;9226;47.858;9.594;2023-02-28T11:03:40;95703.41;;;-0.13;65.02
18201;BME280;9226;47.858;9.594;2023-02-28T11:06:28;95696.75;;;0.03;64.89
18201;BME280;9226;47.858;9.594;2023-02-28T11:08:57;95690.88;;;0.22;64.94
18201;BME280;9226;47.858;9.594;2023-02-28T11:11:25;95698.69;;;0.22;64.29
18201;BME280;9226;47.858;9.594;2023-02-28T11:13:55;95690.31;;;0.37;63.48
18201;BME280;9226;47.858;9.594;2023-02-28T11:16:21;95704.38;;;0.33;63.21
18201;BME280;9226;47.858;9.594;2023-02-28T11:18:52;95696.53;;;0.33;63.29
18201;BME280;9226;47.858;9.594;2023-02-28T11:21:24;95706.88;;;0.36;63.70
18201;BME280;9226;47.858;9.594;2023-02-28T11:24:02;95707.69;;;0.38;63.25
18201;BME280;9226;47.858;9.594;2023-02-28T11:26:43;95707.91;;;0.32;63.69
18201;BME280;9226;47.858;9.594;2023-02-28T11:29:27;95710.41;;;0.35;63.90
18201;BME280;9226;47.858;9.594;2023-02-28T11:34:43;95705.19;;;0.35;63.49
18201;BME280;9226;47.858;9.594;2023-02-28T11:37:12;95701.69;;;0.34;63.72
18201;BME280;9226;47.858;9.594;2023-02-28T11:39:38;95699.09;;;0.58;63.50
18201;BME280;9226;47.858;9.594;2023-02-28T11:42:32;95699.44;;;0.49;63.69
18201;BME280;9226;47.858;9.594;2023-02-28T11:56:13;95687.19;;;0.04;64.87
18201;BME280;9226;47.858;9.594;2023-02-28T11:58:51;95700.19;;;0.29;64.30
18201;BME280;9226;47.858;9.594;2023-02-28T12:09:47;95708.56;;;0.13;64.13
18201;BME280;9226;47.858;9.594;2023-02-28T12:12:23;95700.84;;;0.10;64.55
18201;BME280;9226;47.858;9.594;2023-02-28T12:20:18;95699.09;;;0.34;64.18
18201;BME280;9226;47.858;9.594;2023-02-28T12:26:00;95703.13;;;0.43;63.54
18201;BME280;9226;47.858;9.594;2023-02-28T12:28:34;95695.91;;;0.50;63.60
18201;BME280;9226;47.858;9.594;2023-02-28T12:33:46;95681.13;;;0.95;62.58
18201;BME280;9226;47.858;9.594;2023-02-28T12:36:18;95685.69;;;0.67;62.38
18201;BME280;9226;47.858;9.594;2023-02-28T12:41:58;95677.38;;;1.02;62.49
18201;BME280;9226;47.858;9.594;2023-02-28T12:46:56;95679.75;;;1.08;62.66
18201;BME280;9226;47.858;9.594;2023-02-28T12:49:34;95676.28;;;1.07;62.80
18201;BME280;9226;47.858;9.594;2023-02-28T12:52:03;95676.03;;;1.14;62.80
18201;BME280;9226;47.858;9.594;2023-02-28T12:57:22;95674.59;;;0.84;62.91
18201;BME280;9226;47.858;9.594;2023-02-28T12:59:56;95674.13;;;0.97;63.61
18201;BME280;9226;47.858;9.594;2023-02-28T13:05:46;95670.56;;;0.98;63.11
18201;BME280;9226;47.858;9.594;2023-02-28T13:10:50;95671.38;;;1.22;63.27
18201;BME280;9226;47.858;9.594;2023-02-28T13:13:23;95674.97;;;1.40;62.63
18201;BME280;9226;47.858;9.594;2023-02-28T13:16:08;95681.28;;;1.34;62.35
18201;BME280;9226;47.858;9.594;2023-02-28T13:18:45;95671.78;;;1.11;62.25
18201;BME280;9226;47.858;9.594;2023-02-28T13:21:28;95670.75;;;1.15;62.44
18201;BME280;9226;47.858;9.594;2023-02-28T13:34:49;95687.88;;;1.22;62.56
18201;BME280;9226;47.858;9.594;2023-02-28T13:37:35;95681.25;;;0.92;63.22
18201;BME280;9226;47.858;9.594;2023-02-28T13:55:33;95681.47;;;0.63;64.38
18201;BME280;9226;47.858;9.594;2023-02-28T14:06:39;95701.53;;;0.63;64.46
18201;BME280;9226;47.858;9.594;2023-02-28T14:11:39;95708.25;;;0.46;64.30
18201;BME280;9226;47.858;9.594;2023-02-28T14:14:07;95706.31;;;0.51;64.67
18201;BME280;9226;47.858;9.594;2023-02-28T14:16:45;95702.75;;;0.54;63.72
18201;BME280;9226;47.858;9.594;2023-02-28T14:19:22;95711.91;;;0.64;64.12
18201;BME280;9226;47.858;9.594;2023-02-28T14:25:08;95716.34;;;0.62;64.20
18201;BME280;9226;47.858;9.594;2023-02-28T14:27:58;95716.25;;;0.65;64.12
18201;BME280;9226;47.858;9.594;2023-02-28T14:36:21;95709.19;;;0.44;63.47
18201;BME280;9226;47.858;9.594;2023-02-28T14:39:16;95709.25;;;0.42;64.13
18201;BME280;9226;47.858;9.594;2023-02-28T14:41:43;95713.78;;;0.61;64.00
18201;BME280;9226;47.858;9.594;2023-02-28T14:44:16;95707.25;;;0.72;64.20
18201;BME280;9226;47.858;9.594;2023-02-28T14:46:43;95709.44;;;0.83;64.00
18201;BME280;9226;47.858;9.594;2023-02-28T14:49:25;95704.47;;;0.77;63.11
18201;BME280;9226;47.858;9.594;2023-02-28T14:52:23;95715.72;;;0.79;62.56
18201;BME280;9226;47.858;9.594;2023-02-28T14:54:54;95708.16;;;0.71;62.93
18201;BME280;9226;47.858;9.594;2023-02-28T14:57:25;95715.53;;;0.84;62.99
18201;BME280;9226;47.858;9.594;2023-02-28T15:02:24;95714.31;;;0.93;63.47
18201;BME280;9226;47.858;9.594;2023-02-28T15:07:42;95718.06;;;0.85;62.70
18201;BME280;9226;47.858;9.594;2023-02-28T15:12:49;95717.41;;;0.80;63.50
18201;BME280;9226;47.858;9.594;2023-02-28T15:15:16;95713.69;;;0.64;63.08
18201;BME280;9226;47.858;9.594;2023-02-28T15:17:48;95711.84;;;0.66;63.15
18201;BME280;9226;47.858;9.594;2023-02-28T15:20:15;95711.69;;;0.47;63.71
18201;BME280;9226;47.858;9.594;2023-02-28T15:22:42;95719.13;;;0.58;63.80
18201;BME280;9226;47.858;9.594;2023-02-28T15:25:11;95711.06;;;0.64;63.49
18201;BME280;9226;47.858;9.594;2023-02-28T15:27:45;95718.25;;;0.59;63.95
18201;BME280;9226;47.858;9.594;2023-02-28T15:30:17;95718.50;;;0.75;63.99
18201;BME280;9226;47.858;9.594;2023-02-28T15:32:43;95713.72;;;0.86;64.07
18201;BME280;9226;47.858;9.594;2023-02-28T15:35:28;95711.16;;;0.84;63.64
18201;BME280;9226;47.858;9.594;2023-02-28T15:37:56;95719.53;;;0.93;63.55
18201;BME280;9226;47.858;9.594;2023-02-28T15:40:41;95721.16;;;0.97;63.45
18201;BME280;9226;47.858;9.594;2023-02-28T15:43:12;95710.41;;;1.04;63.27
18201;BME280;9226;47.858;9.594;2023-02-28T15:46:12;95711.75;;;0.91;62.81
18201;BME280;9226;47.858;9.594;2023-02-28T15:48:51;95718.47;;;0.98;62.98
18201;BME280;9226;47.858;9.594;2023-02-28T15:51:19;95715.91;;;0.97;63.28
18201;BME280;9226;47.858;9.594;2023-02-28T15:53:52;95712.50;;;0.95;63.53
18201;BME280;9226;47.858;9.594;2023-02-28T15:56:23;95713.47;;;0.92;63.83
18201;BME280;9226;47.858;9.594;2023-02-28T15:58:52;95712.91;;;1.06;63.81